sensor_id;sensor_type;location;lat;lon;timestamp;P1;durP1;ratioP1;P2;durP2;ratioP2
83541;SDS011;73485;49.194;12.104;2024-01-30T00:01:17;14.20;;;8.18;;
83541;SDS011;73485;49.194;12.104;2024-01-30T00:03:44;21.00;;;8.93;;
83541;SDS011;73485;49.194;12.104;2024-01-30T00:06:12;16.70;;;9.38;;
83541;SDS011;73485;49.194;12.104;2024-01-30T00:08:41;17.80;;;9.40;;
83541;SDS011;73485;49.194;12.104;2024-01-30T00:11:12;20.40;;;8.68;;
83541;SDS011;73485;49.194;12.104;2024-01-30T00:13:40;17.15;;;9.25;;
83541;SDS011;73485;49.194;12.104;2024-01-30T00:16:08;19.95;;;9.93;;
83541;SDS011;73485;49.194;12.104;2024-01-30T00:18:35;19.33;;;8.35;;
83541;SDS011;73485;49.194;12.104;2024-01-30T00:21:03;14.48;;;9.20;;
83541;SDS011;73485;49.194;12.104;2024-01-30T00:23:31;18.85;;;7.88;;
83541;SDS011;73485;49.194;12.104;2024-01-30T00:26:00;20.10;;;8.77;;
83541;SDS011;73485;49.194;12.104;2024-01-30T00:28:28;23.23;;;9.52;;
83541;SDS011;73485;49.194;12.104;2024-01-30T00:30:56;14.70;;;8.93;;
83541;SDS011;73485;49.194;12.104;2024-01-30T00:33:23;19.20;;;8.82;;
83541;SDS011;73485;49.194;12.104;2024-01-30T00:35:51;17.83;;;8.88;;
83541;SDS011;73485;49.194;12.104;2024-01-30T00:38:19;13.63;;;8.30;;
83541;SDS011;73485;49.194;12.104;2024-01-30T00:40:46;19.63;;;9.55;;
83541;SDS011;73485;49.194;12.104;2024-01-30T00:43:15;15.02;;;8.13;;
83541;SDS011;73485;49.194;12.104;2024-01-30T00:45:44;17.08;;;7.85;;
83541;SDS011;73485;49.194;12.104;2024-01-30T00:48:11;15.00;;;7.90;;
83541;SDS011;73485;49.194;12.104;2024-01-30T00:50:40;20.85;;;7.80;;
83541;SDS011;73485;49.194;12.104;2024-01-30T00:53:08;21.33;;;9.80;;
83541;SDS011;73485;49.194;12.104;2024-01-30T00:55:35;17.33;;;9.18;;
83541;SDS011;73485;49.194;12.104;2024-01-30T00:58:03;17.20;;;7.72;;
83541;SDS011;73485;49.194;12.104;2024-01-30T01:00:32;19.15;;;7.45;;
83541;SDS011;73485;49.194;12.104;2024-01-30T01:03:00;29.85;;;11.60;;
83541;SDS011;73485;49.194;12.104;2024-01-30T01:05:28;37.70;;;15.57;;
83541;SDS011;73485;49.194;12.104;2024-01-30T01:07:56;36.90;;;13.88;;
83541;SDS011;73485;49.194;12.104;2024-01-30T01:10:23;19.17;;;9.43;;
83541;SDS011;73485;49.194;12.104;2024-01-30T01:12:51;22.75;;;9.98;;
83541;SDS011;73485;49.194;12.104;2024-01-30T01:15:19;15.55;;;7.95;;
83541;SDS011;73485;49.194;12.104;2024-01-30T01:17:48;12.02;;;7.30;;
83541;SDS011;73485;49.194;12.104;2024-01-30T01:20:16;13.23;;;7.20;;
83541;SDS011;73485;49.194;12.104;2024-01-30T01:22:43;20.02;;;7.15;;
83541;SDS011;73485;49.194;12.104;2024-01-30T01:25:11;16.08;;;7.43;;
83541;SDS011;73485;49.194;12.104;2024-01-30T01:27:39;15.60;;;7.90;;
83541;SDS011;73485;49.194;12.104;2024-01-30T01:30:08;15.23;;;7.95;;
83541;SDS011;73485;49.194;12.104;2024-01-30T01:32:38;16.95;;;8.30;;
83541;SDS011;73485;49.194;12.104;2024-01-30T01:35:12;16.52;;;7.45;;
83541;SDS011;73485;49.194;12.104;2024-01-30T01:37:40;15.15;;;8.10;;
83541;SDS011;73485;49.194;12.104;2024-01-30T01:40:08;18.00;;;7.78;;
83541;SDS011;73485;49.194;12.104;2024-01-30T01:42:36;15.35;;;7.63;;
83541;SDS011;73485;49.194;12.104;2024-01-30T01:45:04;16.80;;;8.27;;
83541;SDS011;73485;49.194;12.104;2024-01-30T01:47:32;12.82;;;7.05;;
83541;SDS011;73485;49.194;12.104;2024-01-30T01:50:00;15.52;;;6.70;;
83541;SDS011;73485;49.194;12.104;2024-01-30T01:52:30;14.70;;;7.07;;
83541;SDS011;73485;49.194;12.104;2024-01-30T01:54:58;18.60;;;7.07;;
83541;SDS011;73485;49.194;12.104;2024-01-30T01:57:26;20.80;;;7.78;;
83541;SDS011;73485;49.194;12.104;2024-01-30T01:59:53;16.45;;;7.20;;
83541;SDS011;73485;49.194;12.104;2024-01-30T02:02:21;13.18;;;6.53;;
83541;SDS011;73485;49.194;12.104;2024-01-30T02:04:50;10.88;;;7.15;;
83541;SDS011;73485;49.194;12.104;2024-01-30T02:07:18;11.88;;;6.50;;
83541;SDS011;73485;49.194;12.104;2024-01-30T02:09:48;15.73;;;6.30;;
83541;SDS011;73485;49.194;12.104;2024-01-30T02:12:15;12.50;;;7.13;;
83541;SDS011;73485;49.194;12.104;2024-01-30T02:14:46;16.77;;;6.38;;
83541;SDS011;73485;49.194;12.104;2024-01-30T02:17:15;11.52;;;5.88;;
83541;SDS011;73485;49.194;12.104;2024-01-30T02:19:43;15.43;;;6.78;;
83541;SDS011;73485;49.194;12.104;2024-01-30T02:22:12;17.23;;;6.43;;
83541;SDS011;73485;49.194;12.104;2024-01-30T02:24:40;15.52;;;6.75;;
83541;SDS011;73485;49.194;12.104;2024-01-30T02:27:08;13.32;;;6.88;;
83541;SDS011;73485;49.194;12.104;2024-01-30T02:29:36;15.13;;;6.05;;
83541;SDS011;73485;49.194;12.104;2024-01-30T02:32:04;15.23;;;6.47;;
83541;SDS011;73485;49.194;12.104;2024-01-30T02:34:32;12.50;;;6.75;;
83541;SDS011;73485;49.194;12.104;2024-01-30T02:37:00;9.73;;;5.63;;
83541;SDS011;73485;49.194;12.104;2024-01-30T02:39:29;14.48;;;6.50;;
83541;SDS011;73485;49.194;12.104;2024-01-30T02:41:56;14.02;;;6.40;;
83541;SDS011;73485;49.194;12.104;2024-01-30T02:44:24;11.95;;;6.88;;
83541;SDS011;73485;49.194;12.104;2024-01-30T02:46:52;16.63;;;7.43;;
83541;SDS011;73485;49.194;12.104;2024-01-30T02:49:20;11.40;;;7.05;;
83541;SDS011;73485;49.194;12.104;2024-01-30T02:51:48;12.00;;;5.95;;
83541;SDS011;73485;49.194;12.104;2024-01-30T02:54:17;15.40;;;6.65;;
83541;SDS011;73485;49.194;12.104;2024-01-30T02:56:46;10.98;;;5.53;;
83541;SDS011;73485;49.194;12.104;2024-01-30T02:59:14;18.33;;;6.95;;
83541;SDS011;73485;49.194;12.104;2024-01-30T03:01:42;11.45;;;5.78;;
83541;SDS011;73485;49.194;12.104;2024-01-30T03:04:11;15.02;;;5.93;;
83541;SDS011;73485;49.194;12.104;2024-01-30T03:06:44;16.10;;;6.80;;
83541;SDS011;73485;49.194;12.104;2024-01-30T03:09:12;13.52;;;6.32;;
83541;SDS011;73485;49.194;12.104;2024-01-30T03:11:40;12.52;;;7.25;;
83541;SDS011;73485;49.194;12.104;2024-01-30T03:14:09;18.17;;;6.68;;
83541;SDS011;73485;49.194;12.104;2024-01-30T03:16:37;13.07;;;6.43;;
83541;SDS011;73485;49.194;12.104;2024-01-30T03:19:05;10.45;;;5.60;;
83541;SDS011;73485;49.194;12.104;2024-01-30T03:21:35;11.57;;;6.45;;
83541;SDS011;73485;49.194;12.104;2024-01-30T03:24:03;12.25;;;5.82;;
83541;SDS011;73485;49.194;12.104;2024-01-30T03:26:31;14.00;;;5.82;;
83541;SDS011;73485;49.194;12.104;2024-01-30T03:28:59;14.07;;;7.20;;
83541;SDS011;73485;49.194;12.104;2024-01-30T03:31:28;9.38;;;5.88;;
83541;SDS011;73485;49.194;12.104;2024-01-30T03:33:55;16.25;;;6.93;;
83541;SDS011;73485;49.194;12.104;2024-01-30T03:36:23;12.65;;;6.68;;
83541;SDS011;73485;49.194;12.104;2024-01-30T03:38:51;14.05;;;6.90;;
83541;SDS011;73485;49.194;12.104;2024-01-30T03:41:18;18.02;;;7.53;;
83541;SDS011;73485;49.194;12.104;2024-01-30T03:43:46;11.25;;;6.53;;
83541;SDS011;73485;49.194;12.104;2024-01-30T03:46:14;12.77;;;7.47;;
83541;SDS011;73485;49.194;12.104;2024-01-30T03:48:44;21.95;;;7.82;;
83541;SDS011;73485;49.194;12.104;2024-01-30T03:51:12;18.10;;;6.72;;
83541;SDS011;73485;49.194;12.104;2024-01-30T03:53:41;12.20;;;7.07;;
83541;SDS011;73485;49.194;12.104;2024-01-30T03:56:08;12.00;;;6.32;;
83541;SDS011;73485;49.194;12.104;2024-01-30T03:58:36;15.27;;;6.15;;
83541;SDS011;73485;49.194;12.104;2024-01-30T04:01:04;13.15;;;6.30;;
83541;SDS011;73485;49.194;12.104;2024-01-30T04:03:31;16.42;;;7.03;;
83541;SDS011;73485;49.194;12.104;2024-01-30T04:06:01;11.18;;;6.40;;
83541;SDS011;73485;49.194;12.104;2024-01-30T04:08:28;14.63;;;6.95;;
83541;SDS011;73485;49.194;12.104;2024-01-30T04:10:56;14.48;;;7.38;;
83541;SDS011;73485;49.194;12.104;2024-01-30T04:13:24;16.55;;;6.47;;
83541;SDS011;73485;49.194;12.104;2024-01-30T04:15:51;12.93;;;6.97;;
83541;SDS011;73485;49.194;12.104;2024-01-30T04:18:20;14.35;;;6.68;;
83541;SDS011;73485;49.194;12.104;2024-01-30T04:20:48;17.52;;;7.50;;
83541;SDS011;73485;49.194;12.104;2024-01-30T04:23:17;15.73;;;7.10;;
83541;SDS011;73485;49.194;12.104;2024-01-30T04:25:45;13.65;;;7.72;;
83541;SDS011;73485;49.194;12.104;2024-01-30T04:28:12;10.00;;;6.05;;
83541;SDS011;73485;49.194;12.104;2024-01-30T04:30:40;11.30;;;6.32;;
83541;SDS011;73485;49.194;12.104;2024-01-30T04:33:08;11.50;;;5.72;;
83541;SDS011;73485;49.194;12.104;2024-01-30T04:35:35;13.55;;;6.45;;
83541;SDS011;73485;49.194;12.104;2024-01-30T04:38:03;14.65;;;7.93;;
83541;SDS011;73485;49.194;12.104;2024-01-30T04:40:32;15.52;;;6.53;;
83541;SDS011;73485;49.194;12.104;2024-01-30T04:43:00;17.20;;;7.10;;
83541;SDS011;73485;49.194;12.104;2024-01-30T04:45:28;15.80;;;6.45;;
83541;SDS011;73485;49.194;12.104;2024-01-30T04:47:55;16.77;;;7.85;;
83541;SDS011;73485;49.194;12.104;2024-01-30T04:50:23;15.73;;;8.35;;
83541;SDS011;73485;49.194;12.104;2024-01-30T04:52:52;16.63;;;7.85;;
83541;SDS011;73485;49.194;12.104;2024-01-30T04:55:20;14.65;;;6.85;;
83541;SDS011;73485;49.194;12.104;2024-01-30T04:57:50;14.70;;;6.70;;
83541;SDS011;73485;49.194;12.104;2024-01-30T05:00:18;15.68;;;6.97;;
83541;SDS011;73485;49.194;12.104;2024-01-30T05:02:46;16.63;;;7.07;;
83541;SDS011;73485;49.194;12.104;2024-01-30T05:05:13;15.13;;;7.57;;
83541;SDS011;73485;49.194;12.104;2024-01-30T05:07:42;18.02;;;7.47;;
83541;SDS011;73485;49.194;12.104;2024-01-30T05:10:10;12.52;;;7.20;;
83541;SDS011;73485;49.194;12.104;2024-01-30T05:12:38;16.45;;;7.63;;
83541;SDS011;73485;49.194;12.104;2024-01-30T05:15:08;14.23;;;7.53;;
83541;SDS011;73485;49.194;12.104;2024-01-30T05:17:36;16.88;;;8.18;;
83541;SDS011;73485;49.194;12.104;2024-01-30T05:20:04;21.65;;;9.38;;
83541;SDS011;73485;49.194;12.104;2024-01-30T05:22:33;19.25;;;7.60;;
83541;SDS011;73485;49.194;12.104;2024-01-30T05:25:01;15.23;;;7.30;;
83541;SDS011;73485;49.194;12.104;2024-01-30T05:27:30;14.70;;;6.82;;
83541;SDS011;73485;49.194;12.104;2024-01-30T05:29:57;14.63;;;6.70;;
83541;SDS011;73485;49.194;12.104;2024-01-30T05:32:26;17.00;;;8.23;;
83541;SDS011;73485;49.194;12.104;2024-01-30T05:34:54;15.20;;;6.50;;
83541;SDS011;73485;49.194;12.104;2024-01-30T05:37:21;24.25;;;8.70;;
83541;SDS011;73485;49.194;12.104;2024-01-30T05:39:49;15.25;;;7.20;;
83541;SDS011;73485;49.194;12.104;2024-01-30T05:42:17;15.20;;;8.07;;
83541;SDS011;73485;49.194;12.104;2024-01-30T05:44:45;13.13;;;7.57;;
83541;SDS011;73485;49.194;12.104;2024-01-30T05:47:12;21.90;;;8.48;;
83541;SDS011;73485;49.194;12.104;2024-01-30T05:49:41;14.63;;;8.85;;
83541;SDS011;73485;49.194;12.104;2024-01-30T05:52:09;19.90;;;8.65;;
83541;SDS011;73485;49.194;12.104;2024-01-30T05:54:37;16.42;;;7.07;;
83541;SDS011;73485;49.194;12.104;2024-01-30T05:57:05;13.38;;;6.93;;
83541;SDS011;73485;49.194;12.104;2024-01-30T05:59:32;20.25;;;9.55;;
83541;SDS011;73485;49.194;12.104;2024-01-30T06:02:06;16.48;;;8.63;;
83541;SDS011;73485;49.194;12.104;2024-01-30T06:04:34;19.50;;;8.48;;
83541;SDS011;73485;49.194;12.104;2024-01-30T06:07:03;14.32;;;7.60;;
83541;SDS011;73485;49.194;12.104;2024-01-30T06:09:32;13.00;;;7.70;;
83541;SDS011;73485;49.194;12.104;2024-01-30T06:12:00;20.92;;;7.63;;
83541;SDS011;73485;49.194;12.104;2024-01-30T06:14:27;18.95;;;8.05;;
83541;SDS011;73485;49.194;12.104;2024-01-30T06:16:55;13.52;;;7.75;;
83541;SDS011;73485;49.194;12.104;2024-01-30T06:19:23;16.38;;;7.50;;
83541;SDS011;73485;49.194;12.104;2024-01-30T06:21:50;13.70;;;7.55;;
83541;SDS011;73485;49.194;12.104;2024-01-30T06:24:19;15.00;;;7.50;;
83541;SDS011;73485;49.194;12.104;2024-01-30T06:26:47;20.80;;;8.23;;
83541;SDS011;73485;49.194;12.104;2024-01-30T06:29:15;17.23;;;6.80;;
83541;SDS011;73485;49.194;12.104;2024-01-30T06:34:13;11.13;;;6.57;;
83541;SDS011;73485;49.194;12.104;2024-01-30T06:36:41;17.95;;;7.50;;
83541;SDS011;73485;49.194;12.104;2024-01-30T06:39:08;13.60;;;7.25;;
83541;SDS011;73485;49.194;12.104;2024-01-30T06:41:37;13.55;;;7.72;;
83541;SDS011;73485;49.194;12.104;2024-01-30T06:44:05;26.48;;;11.05;;
83541;SDS011;73485;49.194;12.104;2024-01-30T06:46:34;21.90;;;10.57;;
83541;SDS011;73485;49.194;12.104;2024-01-30T06:49:03;26.08;;;10.68;;
83541;SDS011;73485;49.194;12.104;2024-01-30T06:51:31;18.27;;;9.45;;
83541;SDS011;73485;49.194;12.104;2024-01-30T06:53:58;26.98;;;11.40;;
83541;SDS011;73485;49.194;12.104;2024-01-30T06:56:26;19.65;;;9.77;;
83541;SDS011;73485;49.194;12.104;2024-01-30T06:58:55;25.63;;;11.95;;
83541;SDS011;73485;49.194;12.104;2024-01-30T07:01:27;20.30;;;11.05;;
83541;SDS011;73485;49.194;12.104;2024-01-30T07:03:55;28.45;;;11.05;;
83541;SDS011;73485;49.194;12.104;2024-01-30T07:06:23;19.35;;;10.75;;
83541;SDS011;73485;49.194;12.104;2024-01-30T07:08:51;16.45;;;9.38;;
83541;SDS011;73485;49.194;12.104;2024-01-30T07:11:18;23.80;;;11.05;;
83541;SDS011;73485;49.194;12.104;2024-01-30T07:13:47;23.73;;;12.30;;
83541;SDS011;73485;49.194;12.104;2024-01-30T07:16:16;28.05;;;11.40;;
83541;SDS011;73485;49.194;12.104;2024-01-30T07:18:44;21.73;;;10.48;;
83541;SDS011;73485;49.194;12.104;2024-01-30T07:21:12;18.90;;;10.05;;
83541;SDS011;73485;49.194;12.104;2024-01-30T07:23:41;24.40;;;8.25;;
83541;SDS011;73485;49.194;12.104;2024-01-30T07:26:09;16.92;;;8.18;;
83541;SDS011;73485;49.194;12.104;2024-01-30T07:28:37;13.98;;;8.30;;
83541;SDS011;73485;49.194;12.104;2024-01-30T07:31:05;14.27;;;7.45;;
83541;SDS011;73485;49.194;12.104;2024-01-30T07:33:34;20.60;;;10.25;;
83541;SDS011;73485;49.194;12.104;2024-01-30T07:36:02;18.20;;;8.45;;
83541;SDS011;73485;49.194;12.104;2024-01-30T07:38:31;20.95;;;8.82;;
83541;SDS011;73485;49.194;12.104;2024-01-30T07:40:59;19.73;;;9.85;;
83541;SDS011;73485;49.194;12.104;2024-01-30T07:43:26;22.67;;;9.27;;
83541;SDS011;73485;49.194;12.104;2024-01-30T07:45:54;22.00;;;10.27;;
83541;SDS011;73485;49.194;12.104;2024-01-30T07:48:22;22.85;;;10.38;;
83541;SDS011;73485;49.194;12.104;2024-01-30T07:50:51;17.67;;;9.70;;
83541;SDS011;73485;49.194;12.104;2024-01-30T07:53:19;17.27;;;9.95;;
83541;SDS011;73485;49.194;12.104;2024-01-30T07:55:47;20.58;;;9.95;;
83541;SDS011;73485;49.194;12.104;2024-01-30T07:58:14;20.92;;;10.80;;
83541;SDS011;73485;49.194;12.104;2024-01-30T08:00:42;21.00;;;11.45;;
83541;SDS011;73485;49.194;12.104;2024-01-30T08:03:10;22.40;;;11.60;;
83541;SDS011;73485;49.194;12.104;2024-01-30T08:05:38;28.02;;;11.68;;
83541;SDS011;73485;49.194;12.104;2024-01-30T08:08:07;22.90;;;10.45;;
83541;SDS011;73485;49.194;12.104;2024-01-30T08:10:35;20.75;;;10.45;;
83541;SDS011;73485;49.194;12.104;2024-01-30T08:13:03;22.30;;;10.85;;
83541;SDS011;73485;49.194;12.104;2024-01-30T08:15:31;23.00;;;11.50;;
83541;SDS011;73485;49.194;12.104;2024-01-30T08:17:58;20.55;;;11.38;;
83541;SDS011;73485;49.194;12.104;2024-01-30T08:20:26;20.75;;;10.20;;
83541;SDS011;73485;49.194;12.104;2024-01-30T08:22:54;24.48;;;9.98;;
83541;SDS011;73485;49.194;12.104;2024-01-30T08:25:23;27.10;;;11.48;;
83541;SDS011;73485;49.194;12.104;2024-01-30T08:27:50;18.42;;;10.05;;
83541;SDS011;73485;49.194;12.104;2024-01-30T08:30:18;25.13;;;13.07;;
83541;SDS011;73485;49.194;12.104;2024-01-30T08:32:46;23.95;;;11.27;;
83541;SDS011;73485;49.194;12.104;2024-01-30T08:35:14;22.75;;;11.25;;
83541;SDS011;73485;49.194;12.104;2024-01-30T08:37:42;25.23;;;11.50;;
83541;SDS011;73485;49.194;12.104;2024-01-30T08:40:10;28.30;;;11.55;;
83541;SDS011;73485;49.194;12.104;2024-01-30T08:42:39;26.95;;;12.20;;
83541;SDS011;73485;49.194;12.104;2024-01-30T08:45:07;28.80;;;12.35;;
83541;SDS011;73485;49.194;12.104;2024-01-30T08:47:35;22.83;;;11.38;;
83541;SDS011;73485;49.194;12.104;2024-01-30T08:50:04;20.13;;;11.90;;
83541;SDS011;73485;49.194;12.104;2024-01-30T08:52:32;27.80;;;11.32;;
83541;SDS011;73485;49.194;12.104;2024-01-30T08:55:01;19.40;;;11.30;;
83541;SDS011;73485;49.194;12.104;2024-01-30T08:57:28;24.70;;;11.68;;
83541;SDS011;73485;49.194;12.104;2024-01-30T08:59:58;26.10;;;12.43;;
83541;SDS011;73485;49.194;12.104;2024-01-30T09:02:26;28.30;;;11.23;;
83541;SDS011;73485;49.194;12.104;2024-01-30T09:04:54;25.65;;;11.27;;
83541;SDS011;73485;49.194;12.104;2024-01-30T09:07:22;26.85;;;12.15;;
83541;SDS011;73485;49.194;12.104;2024-01-30T09:09:50;21.42;;;11.45;;
83541;SDS011;73485;49.194;12.104;2024-01-30T09:12:17;19.60;;;11.07;;
83541;SDS011;73485;49.194;12.104;2024-01-30T09:14:45;26.30;;;11.43;;
83541;SDS011;73485;49.194;12.104;2024-01-30T09:17:14;19.70;;;11.00;;
83541;SDS011;73485;49.194;12.104;2024-01-30T09:19:42;22.13;;;11.02;;
83541;SDS011;73485;49.194;12.104;2024-01-30T09:22:10;20.75;;;11.27;;
83541;SDS011;73485;49.194;12.104;2024-01-30T09:24:37;23.85;;;12.07;;
83541;SDS011;73485;49.194;12.104;2024-01-30T09:27:05;24.02;;;11.73;;
83541;SDS011;73485;49.194;12.104;2024-01-30T09:29:33;25.35;;;12.45;;
83541;SDS011;73485;49.194;12.104;2024-01-30T09:32:03;28.00;;;12.05;;
83541;SDS011;73485;49.194;12.104;2024-01-30T09:34:33;24.20;;;12.38;;
83541;SDS011;73485;49.194;12.104;2024-01-30T09:37:01;24.33;;;12.90;;
83541;SDS011;73485;49.194;12.104;2024-01-30T09:39:29;26.17;;;12.75;;
83541;SDS011;73485;49.194;12.104;2024-01-30T09:42:00;26.02;;;12.30;;
83541;SDS011;73485;49.194;12.104;2024-01-30T09:44:30;23.92;;;12.38;;
83541;SDS011;73485;49.194;12.104;2024-01-30T09:46:58;28.88;;;14.20;;
83541;SDS011;73485;49.194;12.104;2024-01-30T09:49:30;31.48;;;13.52;;
83541;SDS011;73485;49.194;12.104;2024-01-30T09:52:01;28.48;;;12.50;;
83541;SDS011;73485;49.194;12.104;2024-01-30T09:57:02;23.55;;;12.43;;
83541;SDS011;73485;49.194;12.104;2024-01-30T09:59:29;26.45;;;13.48;;
83541;SDS011;73485;49.194;12.104;2024-01-30T10:01:57;28.42;;;13.93;;
83541;SDS011;73485;49.194;12.104;2024-01-30T10:04:25;30.42;;;13.77;;
83541;SDS011;73485;49.194;12.104;2024-01-30T10:06:53;29.35;;;12.55;;
83541;SDS011;73485;49.194;12.104;2024-01-30T10:09:22;28.95;;;13.55;;
83541;SDS011;73485;49.194;12.104;2024-01-30T10:11:51;26.13;;;14.15;;
83541;SDS011;73485;49.194;12.104;2024-01-30T10:14:19;27.23;;;14.30;;
83541;SDS011;73485;49.194;12.104;2024-01-30T10:16:46;29.15;;;13.85;;
83541;SDS011;73485;49.194;12.104;2024-01-30T10:19:14;24.50;;;13.48;;
83541;SDS011;73485;49.194;12.104;2024-01-30T10:21:42;28.70;;;14.32;;
83541;SDS011;73485;49.194;12.104;2024-01-30T10:24:10;28.42;;;13.85;;
83541;SDS011;73485;49.194;12.104;2024-01-30T10:26:40;30.40;;;13.95;;
83541;SDS011;73485;49.194;12.104;2024-01-30T10:29:08;26.23;;;13.02;;
83541;SDS011;73485;49.194;12.104;2024-01-30T10:31:35;28.30;;;14.88;;
83541;SDS011;73485;49.194;12.104;2024-01-30T10:34:04;28.40;;;13.48;;
83541;SDS011;73485;49.194;12.104;2024-01-30T10:36:45;25.65;;;13.88;;
83541;SDS011;73485;49.194;12.104;2024-01-30T10:39:14;28.05;;;14.38;;
83541;SDS011;73485;49.194;12.104;2024-01-30T10:41:44;28.58;;;13.73;;
83541;SDS011;73485;49.194;12.104;2024-01-30T10:44:16;33.22;;;14.98;;
83541;SDS011;73485;49.194;12.104;2024-01-30T10:46:45;28.27;;;13.05;;
83541;SDS011;73485;49.194;12.104;2024-01-30T10:49:16;32.10;;;13.27;;
83541;SDS011;73485;49.194;12.104;2024-01-30T10:51:44;26.13;;;14.30;;
83541;SDS011;73485;49.194;12.104;2024-01-30T10:54:13;23.92;;;13.35;;
83541;SDS011;73485;49.194;12.104;2024-01-30T10:56:40;31.33;;;15.13;;
83541;SDS011;73485;49.194;12.104;2024-01-30T10:59:11;26.35;;;13.93;;
83541;SDS011;73485;49.194;12.104;2024-01-30T11:01:40;27.90;;;14.10;;
83541;SDS011;73485;49.194;12.104;2024-01-30T11:04:08;28.63;;;14.27;;
83541;SDS011;73485;49.194;12.104;2024-01-30T11:06:40;28.58;;;13.95;;
83541;SDS011;73485;49.194;12.104;2024-01-30T11:09:10;31.13;;;14.23;;
83541;SDS011;73485;49.194;12.104;2024-01-30T11:11:48;29.02;;;15.13;;
83541;SDS011;73485;49.194;12.104;2024-01-30T11:14:23;33.20;;;15.80;;
83541;SDS011;73485;49.194;12.104;2024-01-30T11:16:52;26.33;;;14.68;;
83541;SDS011;73485;49.194;12.104;2024-01-30T11:19:23;26.45;;;14.40;;
83541;SDS011;73485;49.194;12.104;2024-01-30T11:21:52;33.15;;;14.88;;
83541;SDS011;73485;49.194;12.104;2024-01-30T11:24:21;32.13;;;15.50;;
83541;SDS011;73485;49.194;12.104;2024-01-30T11:26:48;27.98;;;14.10;;
83541;SDS011;73485;49.194;12.104;2024-01-30T11:29:17;25.90;;;13.18;;
83541;SDS011;73485;49.194;12.104;2024-01-30T11:31:53;30.63;;;14.27;;
83541;SDS011;73485;49.194;12.104;2024-01-30T11:34:21;29.60;;;12.52;;
83541;SDS011;73485;49.194;12.104;2024-01-30T11:36:51;23.88;;;12.65;;
83541;SDS011;73485;49.194;12.104;2024-01-30T11:41:54;28.60;;;13.20;;
83541;SDS011;73485;49.194;12.104;2024-01-30T11:44:22;27.73;;;13.88;;
83541;SDS011;73485;49.194;12.104;2024-01-30T11:46:50;26.88;;;12.10;;
83541;SDS011;73485;49.194;12.104;2024-01-30T11:49:20;26.80;;;13.43;;
83541;SDS011;73485;49.194;12.104;2024-01-30T11:51:48;25.73;;;13.05;;
83541;SDS011;73485;49.194;12.104;2024-01-30T11:54:16;23.60;;;11.98;;
83541;SDS011;73485;49.194;12.104;2024-01-30T11:56:43;25.98;;;13.70;;
83541;SDS011;73485;49.194;12.104;2024-01-30T11:59:11;23.58;;;13.10;;
83541;SDS011;73485;49.194;12.104;2024-01-30T12:01:39;25.17;;;12.40;;
83541;SDS011;73485;49.194;12.104;2024-01-30T12:04:07;26.60;;;14.63;;
83541;SDS011;73485;49.194;12.104;2024-01-30T12:06:38;32.00;;;13.10;;
83541;SDS011;73485;49.194;12.104;2024-01-30T12:09:06;26.35;;;13.57;;
83541;SDS011;73485;49.194;12.104;2024-01-30T12:11:43;22.73;;;12.48;;
83541;SDS011;73485;49.194;12.104;2024-01-30T12:14:11;24.55;;;13.48;;
83541;SDS011;73485;49.194;12.104;2024-01-30T12:16:39;25.02;;;12.13;;
83541;SDS011;73485;49.194;12.104;2024-01-30T12:19:07;28.15;;;12.73;;
83541;SDS011;73485;49.194;12.104;2024-01-30T12:21:36;25.40;;;13.82;;
83541;SDS011;73485;49.194;12.104;2024-01-30T12:24:05;23.45;;;12.55;;
83541;SDS011;73485;49.194;12.104;2024-01-30T12:26:34;26.02;;;13.85;;
83541;SDS011;73485;49.194;12.104;2024-01-30T12:29:03;24.70;;;14.02;;
83541;SDS011;73485;49.194;12.104;2024-01-30T12:31:32;23.08;;;12.52;;
83541;SDS011;73485;49.194;12.104;2024-01-30T12:34:00;24.98;;;12.63;;
83541;SDS011;73485;49.194;12.104;2024-01-30T12:36:28;24.67;;;12.93;;
83541;SDS011;73485;49.194;12.104;2024-01-30T12:38:57;24.17;;;12.07;;
83541;SDS011;73485;49.194;12.104;2024-01-30T12:41:25;21.27;;;12.45;;
83541;SDS011;73485;49.194;12.104;2024-01-30T12:43:56;23.73;;;10.82;;
83541;SDS011;73485;49.194;12.104;2024-01-30T12:46:26;24.33;;;12.55;;
83541;SDS011;73485;49.194;12.104;2024-01-30T12:48:55;25.00;;;11.30;;
83541;SDS011;73485;49.194;12.104;2024-01-30T12:51:23;29.30;;;13.05;;
83541;SDS011;73485;49.194;12.104;2024-01-30T12:53:51;20.40;;;11.48;;
83541;SDS011;73485;49.194;12.104;2024-01-30T12:56:21;26.92;;;12.00;;
83541;SDS011;73485;49.194;12.104;2024-01-30T12:58:48;22.83;;;12.48;;
83541;SDS011;73485;49.194;12.104;2024-01-30T13:01:19;21.50;;;11.82;;
83541;SDS011;73485;49.194;12.104;2024-01-30T13:03:47;22.48;;;11.90;;
83541;SDS011;73485;49.194;12.104;2024-01-30T13:06:15;23.38;;;12.80;;
83541;SDS011;73485;49.194;12.104;2024-01-30T13:08:43;23.73;;;11.27;;
83541;SDS011;73485;49.194;12.104;2024-01-30T13:11:10;20.02;;;10.43;;
83541;SDS011;73485;49.194;12.104;2024-01-30T13:13:48;21.23;;;11.35;;
83541;SDS011;73485;49.194;12.104;2024-01-30T13:16:15;22.73;;;11.43;;
83541;SDS011;73485;49.194;12.104;2024-01-30T13:18:43;22.60;;;13.45;;
83541;SDS011;73485;49.194;12.104;2024-01-30T13:21:11;23.00;;;11.85;;
83541;SDS011;73485;49.194;12.104;2024-01-30T13:23:39;29.00;;;12.25;;
83541;SDS011;73485;49.194;12.104;2024-01-30T13:26:07;22.70;;;12.95;;
83541;SDS011;73485;49.194;12.104;2024-01-30T13:28:34;23.88;;;12.40;;
83541;SDS011;73485;49.194;12.104;2024-01-30T13:31:03;22.65;;;11.73;;
83541;SDS011;73485;49.194;12.104;2024-01-30T13:33:32;23.20;;;11.18;;
83541;SDS011;73485;49.194;12.104;2024-01-30T13:36:00;26.60;;;12.00;;
83541;SDS011;73485;49.194;12.104;2024-01-30T13:38:28;20.23;;;12.25;;
83541;SDS011;73485;49.194;12.104;2024-01-30T13:40:56;24.35;;;11.70;;
83541;SDS011;73485;49.194;12.104;2024-01-30T13:43:24;24.17;;;11.63;;
83541;SDS011;73485;49.194;12.104;2024-01-30T13:45:52;21.92;;;11.52;;
83541;SDS011;73485;49.194;12.104;2024-01-30T13:48:21;26.33;;;13.07;;
83541;SDS011;73485;49.194;12.104;2024-01-30T13:50:49;27.75;;;11.82;;
83541;SDS011;73485;49.194;12.104;2024-01-30T13:53:17;24.98;;;12.02;;
83541;SDS011;73485;49.194;12.104;2024-01-30T13:55:45;27.73;;;12.60;;
83541;SDS011;73485;49.194;12.104;2024-01-30T13:58:13;22.08;;;14.00;;
83541;SDS011;73485;49.194;12.104;2024-01-30T14:00:41;22.13;;;11.45;;
83541;SDS011;73485;49.194;12.104;2024-01-30T14:03:08;19.92;;;11.80;;
83541;SDS011;73485;49.194;12.104;2024-01-30T14:05:37;24.80;;;12.23;;
83541;SDS011;73485;49.194;12.104;2024-01-30T14:08:06;25.55;;;13.43;;
83541;SDS011;73485;49.194;12.104;2024-01-30T14:10:35;21.08;;;12.07;;
83541;SDS011;73485;49.194;12.104;2024-01-30T14:13:02;24.50;;;13.95;;
83541;SDS011;73485;49.194;12.104;2024-01-30T14:15:30;29.00;;;12.57;;
83541;SDS011;73485;49.194;12.104;2024-01-30T14:17:58;21.55;;;12.45;;
83541;SDS011;73485;49.194;12.104;2024-01-30T14:20:27;20.60;;;12.60;;
83541;SDS011;73485;49.194;12.104;2024-01-30T14:22:56;27.15;;;12.65;;
83541;SDS011;73485;49.194;12.104;2024-01-30T14:25:23;22.27;;;12.63;;
83541;SDS011;73485;49.194;12.104;2024-01-30T14:27:52;25.35;;;11.65;;
83541;SDS011;73485;49.194;12.104;2024-01-30T14:30:20;24.30;;;12.90;;